Terminal Aerodrome Forecast
Issued by NWS

Home | Current Version | Previous Version | Text Only | Print | Product List | Glossary On
Versions: 1 2 3 4 5 6 7 8 9 10 11 12 13 14 15 16 17 18 19 20 21 22 23
424
FTUS43 KJKL 280409 AAA
TAFSME
TAF AMD
KSME 280409Z 2804/2824 VRB03KT P6SM VCTS SCT045CB BKN150
      TEMPO 2804/2807 3SM -SHRA BR SCT045 BKN060 OVC150
     FM280700 00000KT 3SM BR BKN150
     FM281200 VRB05KT 3SM SHRA BR VCTS BKN040CB
     FM281600 VRB05KT 3SM SHRA BR VCTS SCT010 BKN020CB=

USA.gov is the U.S. government's official web portal to all federal, state and local government web resources and services.